createdAt,value
2022-12-19T00:01:24.493Z,69.95
2022-12-19T00:05:27.942Z,69.55
2022-12-19T00:09:32.710Z,69.22
2022-12-19T00:13:40.856Z,69.92
2022-12-19T00:17:44.636Z,69.61
2022-12-19T00:21:48.049Z,68.99
2022-12-19T00:25:52.564Z,69.72
2022-12-19T00:29:57.377Z,69.52
2022-12-19T00:34:00.685Z,69.55
2022-12-19T00:38:04.438Z,69.39
2022-12-19T00:42:09.001Z,69.15
2022-12-19T00:46:14.271Z,69.49
2022-12-19T00:50:17.679Z,69.09
2022-12-19T00:54:21.039Z,69.46
2022-12-19T00:58:28.344Z,69.60
2022-12-19T01:02:31.973Z,69.71
2022-12-19T01:06:35.421Z,69.73
2022-12-19T01:10:39.079Z,69.34
2022-12-19T01:14:42.903Z,69.45
2022-12-19T01:18:46.091Z,68.86
2022-12-19T01:22:49.615Z,68.12
2022-12-19T01:26:52.877Z,68.14
2022-12-19T01:30:57.326Z,67.52
2022-12-19T01:35:02.821Z,67.05
2022-12-19T01:39:06.462Z,67.13
2022-12-19T01:43:16.050Z,67.02
2022-12-19T01:47:20.710Z,67.17
2022-12-19T01:51:26.283Z,67.12
2022-12-19T01:55:29.644Z,66.14
2022-12-19T01:59:36.972Z,65.84
2022-12-19T02:03:43.322Z,66.33
2022-12-19T02:07:47.736Z,66.25
2022-12-19T02:11:51.538Z,66.74
2022-12-19T02:16:06.027Z,67.04
2022-12-19T02:20:37.835Z,67.36
2022-12-19T02:25:01.247Z,67.79
2022-12-19T02:29:29.441Z,67.24
2022-12-19T02:33:41.216Z,67.28
2022-12-19T02:37:50.855Z,67.50
2022-12-19T02:42:00.405Z,67.42
2022-12-19T02:46:05.978Z,67.40
2022-12-19T02:50:11.233Z,67.42
2022-12-19T02:54:14.418Z,67.20
2022-12-19T02:58:38.888Z,67.82
2022-12-19T03:03:00.778Z,67.37
2022-12-19T03:07:12.356Z,68.36
2022-12-19T03:11:17.400Z,67.54
2022-12-19T03:15:21.338Z,67.50
2022-12-19T03:19:25.882Z,67.41
2022-12-19T03:23:31.540Z,67.34
2022-12-19T03:27:37.960Z,67.30
2022-12-19T03:31:43.574Z,67.82
2022-12-19T03:35:50.013Z,67.04
2022-12-19T03:39:58.508Z,67.13
2022-12-19T03:44:00.638Z,66.78
2022-12-19T03:48:09.530Z,67.21
2022-12-19T03:52:25.012Z,67.34
2022-12-19T03:56:35.772Z,66.77
2022-12-19T04:00:42.451Z,66.40
2022-12-19T04:04:50.449Z,66.59
2022-12-19T04:08:53.708Z,66.15
2022-12-19T04:13:02.798Z,66.23
2022-12-19T04:17:14.758Z,66.29
2022-12-19T04:21:24.910Z,65.92
2022-12-19T04:25:31.670Z,66.01
2022-12-19T04:29:38.218Z,66.08
2022-12-19T04:33:41.668Z,66.33
2022-12-19T04:37:45.173Z,65.93
2022-12-19T04:41:48.229Z,66.06
2022-12-19T04:45:57.308Z,65.76
2022-12-19T04:50:00.684Z,66.41
2022-12-19T04:54:04.751Z,66.39
2022-12-19T04:58:08.670Z,66.12
2022-12-19T05:02:14.161Z,66.30
2022-12-19T05:06:17.437Z,65.98
2022-12-19T05:10:20.911Z,66.21
2022-12-19T05:14:24.184Z,65.87
2022-12-19T05:18:30.009Z,65.95
2022-12-19T05:22:33.108Z,65.40
2022-12-19T05:26:36.359Z,66.44
2022-12-19T05:30:39.633Z,66.70
2022-12-19T05:34:44.498Z,67.06
2022-12-19T05:38:47.793Z,67.23
2022-12-19T05:42:51.109Z,66.89
2022-12-19T05:52:40.629Z,67.92
2022-12-19T05:56:44.138Z,67.25
2022-12-19T06:00:47.302Z,67.79
2022-12-19T06:04:50.637Z,67.26
2022-12-19T06:08:56.530Z,67.07
2022-12-19T06:12:59.714Z,67.43
2022-12-19T06:17:03.112Z,67.45
2022-12-19T06:21:08.860Z,68.07
2022-12-19T06:25:13.701Z,67.61
2022-12-19T06:29:17.238Z,67.99
2022-12-19T06:33:20.639Z,68.21
2022-12-19T06:37:24.087Z,67.91
2022-12-19T06:41:46.858Z,67.29
2022-12-19T06:45:51.129Z,66.79
2022-12-19T06:49:54.776Z,67.05
2022-12-19T06:53:58.847Z,67.75
2022-12-19T06:58:03.423Z,67.51
2022-12-19T07:02:23.052Z,67.69
2022-12-19T07:06:26.574Z,67.35
2022-12-19T07:10:29.829Z,67.42
2022-12-19T07:14:35.286Z,67.10
2022-12-19T07:18:40.988Z,67.76
2022-12-19T07:22:45.222Z,67.26
2022-12-19T07:26:48.818Z,66.89
2022-12-19T07:30:53.620Z,68.28
2022-12-19T07:34:56.661Z,67.70
2022-12-19T07:39:00.100Z,68.33
2022-12-19T07:43:03.496Z,68.33
2022-12-19T07:47:08.724Z,67.36
2022-12-19T07:51:11.749Z,66.66
2022-12-19T07:55:15.021Z,65.97
2022-12-19T07:59:18.230Z,65.35
2022-12-19T08:03:23.121Z,65.63
2022-12-19T08:07:26.213Z,65.26
2022-12-19T08:11:38.584Z,65.50
2022-12-19T08:15:41.418Z,67.13
2022-12-19T08:19:45.848Z,67.19
2022-12-19T08:23:49.002Z,65.16
2022-12-19T08:27:52.818Z,65.36
2022-12-19T08:31:56.119Z,65.65
2022-12-19T08:36:04.424Z,65.57
2022-12-19T08:40:09.386Z,65.24
2022-12-19T08:44:13.937Z,64.57
2022-12-19T08:48:17.561Z,63.51
2022-12-19T08:52:22.507Z,62.30
2022-12-19T08:56:26.375Z,62.73
2022-12-19T09:00:29.699Z,61.65
2022-12-19T09:05:25.985Z,60.94
2022-12-19T09:09:00.255Z,62.16
2022-12-19T09:13:04.192Z,63.72
2022-12-19T09:17:07.869Z,64.65
2022-12-19T09:21:11.132Z,64.27
2022-12-19T09:25:16.036Z,64.49
2022-12-19T09:29:21.721Z,63.70
2022-12-19T09:33:25.738Z,62.47
2022-12-19T09:37:29.158Z,62.00
2022-12-19T09:41:59.220Z,63.57
2022-12-19T09:46:13.028Z,62.10
2022-12-19T09:50:32.768Z,63.37
2022-12-19T09:54:39.952Z,62.60
2022-12-19T09:58:51.098Z,63.75
2022-12-19T10:03:01.426Z,63.01
2022-12-19T10:07:22.308Z,61.74
2022-12-19T10:12:47.697Z,63.03
2022-12-19T10:16:18.084Z,62.30
2022-12-19T10:20:27.960Z,63.49
2022-12-19T10:25:08.327Z,63.84
2022-12-19T10:29:29.763Z,63.94
2022-12-19T10:33:43.382Z,64.11
2022-12-19T10:37:52.510Z,63.16
2022-12-19T10:42:03.383Z,64.02
2022-12-19T10:46:16.886Z,63.82
2022-12-19T10:50:25.797Z,64.04
2022-12-19T10:54:40.374Z,64.45
2022-12-19T10:58:46.158Z,62.83
2022-12-19T11:02:52.152Z,61.54
2022-12-19T11:07:19.518Z,62.39
2022-12-19T11:12:39.107Z,60.81
2022-12-19T11:22:53.210Z,61.14
2022-12-19T11:29:38.395Z,60.61
2022-12-19T11:30:42.986Z,60.71
2022-12-19T11:32:01.650Z,61.64
2022-12-19T11:33:47.040Z,61.25
2022-12-19T11:37:56.170Z,61.02
2022-12-19T11:42:10.067Z,61.51
2022-12-19T11:46:29.694Z,61.62
2022-12-19T11:50:36.452Z,61.56
2022-12-19T11:54:52.201Z,62.38
2022-12-19T12:04:40.273Z,66.04
2022-12-19T12:13:21.514Z,64.69
2022-12-19T12:25:01.538Z,63.14
2022-12-19T12:31:00.088Z,63.26
2022-12-19T12:31:32.068Z,63.48
2022-12-19T12:31:40.357Z,63.99
2022-12-19T12:35:46.740Z,63.15
2022-12-19T12:41:21.701Z,62.70
2022-12-19T12:45:31.504Z,61.72
2022-12-19T12:49:40.540Z,62.65
2022-12-19T12:53:47.353Z,61.90
2022-12-19T12:57:52.379Z,62.63
2022-12-19T13:01:58.778Z,63.69
2022-12-19T13:06:07.846Z,63.18
2022-12-19T13:10:26.067Z,62.78
2022-12-19T13:14:50.005Z,64.24
2022-12-19T13:19:09.143Z,63.53
2022-12-19T13:23:35.599Z,63.82
2022-12-19T13:27:43.228Z,62.58
2022-12-19T13:32:12.602Z,64.89
2022-12-19T13:39:54.906Z,64.77
2022-12-19T13:41:48.931Z,64.67
2022-12-19T13:45:58.717Z,64.09
2022-12-19T13:50:21.038Z,64.72
2022-12-19T13:54:32.100Z,64.86
2022-12-19T13:58:43.898Z,65.30
2022-12-19T14:02:53.091Z,65.27
2022-12-19T14:07:01.823Z,65.16
2022-12-19T14:11:40.874Z,64.98
2022-12-19T14:15:36.624Z,65.78
2022-12-19T14:19:41.837Z,66.21
2022-12-19T14:23:50.282Z,65.86
2022-12-19T14:28:27.102Z,65.32
2022-12-19T14:33:40.144Z,65.48
2022-12-19T14:36:50.695Z,66.35
2022-12-19T14:41:09.253Z,65.69
2022-12-19T14:52:51.807Z,66.93
2022-12-19T14:54:05.505Z,65.79
2022-12-19T14:56:08.586Z,66.27
2022-12-19T14:58:57.277Z,66.54
2022-12-19T15:03:06.147Z,66.25
2022-12-19T15:07:17.573Z,66.44
2022-12-19T15:12:00.152Z,66.99
2022-12-19T15:16:26.840Z,67.52
2022-12-19T15:20:29.991Z,66.91
2022-12-19T15:24:33.362Z,67.35
2022-12-19T15:28:41.758Z,67.57
2022-12-19T15:32:48.569Z,67.83
2022-12-19T15:36:52.317Z,68.17
2022-12-19T15:40:57.051Z,68.29
2022-12-19T15:45:01.184Z,68.37
2022-12-19T15:49:06.500Z,68.40
2022-12-19T15:53:38.128Z,69.04
2022-12-19T15:57:48.034Z,69.08
2022-12-19T16:01:51.176Z,69.26
2022-12-19T16:05:56.928Z,68.85
2022-12-19T16:10:00.199Z,69.30
2022-12-19T16:14:03.681Z,69.15
2022-12-19T16:18:08.526Z,69.21
2022-12-19T16:22:19.491Z,69.60
2022-12-19T16:26:32.664Z,69.69
2022-12-19T16:30:37.011Z,70.14
2022-12-19T16:34:44.488Z,69.54
2022-12-19T16:38:49.364Z,69.59
2022-12-19T16:43:14.322Z,69.97
2022-12-19T16:47:19.206Z,69.20
2022-12-19T16:51:24.084Z,69.29
2022-12-19T16:55:28.950Z,69.84
2022-12-19T16:59:35.173Z,69.48
2022-12-19T17:03:41.728Z,69.88
2022-12-19T17:07:45.101Z,69.79
2022-12-19T17:11:51.764Z,69.75
2022-12-19T17:15:57.391Z,69.79
2022-12-19T17:20:00.859Z,69.87
2022-12-19T17:24:07.016Z,69.35
2022-12-19T17:28:12.852Z,69.92
2022-12-19T17:32:23.990Z,69.85
2022-12-19T17:36:37.126Z,70.08
2022-12-19T17:40:42.213Z,69.59
2022-12-19T17:44:46.831Z,69.88
2022-12-19T17:48:51.940Z,69.75
2022-12-19T17:52:56.356Z,70.14
2022-12-19T17:56:59.804Z,70.15
2022-12-19T18:01:04.689Z,70.03
2022-12-19T18:05:08.507Z,70.39
2022-12-19T18:09:19.489Z,70.17
2022-12-19T18:13:22.608Z,70.09
2022-12-19T18:17:27.510Z,70.12
2022-12-19T18:21:35.355Z,70.21
2022-12-19T18:25:40.029Z,70.13
2022-12-19T18:29:43.514Z,70.11
2022-12-19T18:33:49.492Z,69.94
2022-12-19T18:37:53.725Z,70.06
2022-12-19T18:41:57.747Z,70.15
2022-12-19T18:46:01.222Z,70.65
2022-12-19T18:50:16.413Z,70.22
2022-12-19T18:54:23.363Z,70.23
2022-12-19T18:58:26.752Z,70.56
2022-12-19T19:02:32.598Z,70.38
2022-12-19T19:06:38.499Z,70.78
2022-12-19T19:10:44.307Z,70.58
2022-12-19T19:14:47.517Z,70.87
2022-12-19T19:18:54.444Z,70.56
2022-12-19T19:23:00.389Z,70.45
2022-12-19T19:27:04.152Z,70.34
2022-12-19T19:31:12.510Z,70.61
2022-12-19T19:35:22.356Z,70.18
2022-12-19T19:39:29.033Z,70.45
2022-12-19T19:43:35.749Z,70.48
2022-12-19T19:47:39.156Z,70.24
2022-12-19T19:51:43.117Z,70.16
2022-12-19T19:55:57.230Z,70.27
2022-12-19T20:00:02.760Z,70.25
2022-12-19T20:04:06.548Z,70.08
2022-12-19T20:08:10.712Z,69.67
2022-12-19T20:12:18.204Z,69.58
2022-12-19T20:16:21.976Z,69.75
2022-12-19T20:20:28.896Z,69.71
2022-12-19T20:24:34.544Z,69.71
2022-12-19T20:28:47.960Z,70.07
2022-12-19T20:32:53.677Z,70.17
2022-12-19T20:36:57.173Z,70.18
2022-12-19T20:41:00.317Z,70.20
2022-12-19T20:45:05.924Z,70.12
2022-12-19T20:49:13.966Z,70.05
2022-12-19T20:53:43.557Z,70.39
2022-12-19T20:57:46.550Z,70.14
2022-12-19T21:01:57.797Z,70.09
2022-12-19T21:06:01.763Z,69.99
2022-12-19T21:10:05.580Z,70.04
2022-12-19T21:14:09.612Z,70.13
2022-12-19T21:18:17.532Z,70.20
2022-12-19T21:22:20.896Z,70.62
2022-12-19T21:26:26.613Z,70.58
2022-12-19T21:30:31.218Z,70.83
2022-12-19T21:34:36.104Z,70.59
2022-12-19T21:38:40.280Z,69.97
2022-12-19T21:42:43.781Z,70.30
2022-12-19T21:46:47.146Z,70.32
2022-12-19T21:50:57.682Z,70.44
2022-12-19T21:55:00.963Z,70.31
2022-12-19T21:59:06.611Z,70.42
2022-12-19T22:03:14.944Z,70.49
2022-12-19T22:07:20.314Z,70.50
2022-12-19T22:11:24.417Z,70.30
2022-12-19T22:15:27.527Z,70.43
2022-12-19T22:19:30.888Z,70.81
2022-12-19T22:23:35.390Z,70.74
2022-12-19T22:27:41.255Z,70.81
2022-12-19T22:31:45.163Z,70.73
2022-12-19T22:35:48.608Z,70.61
2022-12-19T22:39:53.850Z,70.79
2022-12-19T22:43:57.593Z,70.40
2022-12-19T22:48:00.911Z,70.37
2022-12-19T22:52:04.309Z,70.12
2022-12-19T22:56:12.758Z,70.39
2022-12-19T23:00:16.711Z,70.05
2022-12-19T23:04:20.105Z,70.38
2022-12-19T23:08:23.264Z,70.50
2022-12-19T23:12:27.807Z,70.98
2022-12-19T23:16:31.174Z,70.51
2022-12-19T23:20:34.290Z,70.60
2022-12-19T23:24:37.790Z,70.68
2022-12-19T23:28:43.249Z,70.80
2022-12-19T23:32:50.792Z,70.64
2022-12-19T23:37:11.847Z,71.12
2022-12-19T23:41:16.861Z,70.73
2022-12-19T23:45:21.867Z,70.60
2022-12-19T23:49:25.318Z,70.77
2022-12-19T23:53:29.317Z,70.88
2022-12-19T23:57:32.291Z,70.93
